createdAt,value
2022-10-21T00:00:38.782Z,99.15
2022-10-21T00:03:05.801Z,99.17
2022-10-21T00:05:32.959Z,99.02
2022-10-21T00:07:59.860Z,98.96
2022-10-21T00:10:26.742Z,98.66
2022-10-21T00:12:53.652Z,98.96
2022-10-21T00:15:20.628Z,99.08
2022-10-21T00:17:47.423Z,99.12
2022-10-21T00:20:14.280Z,98.91
2022-10-21T00:22:41.170Z,98.89
2022-10-21T00:25:08.668Z,98.75
2022-10-21T00:27:36.032Z,98.89
2022-10-21T00:30:05.922Z,99.27
2022-10-21T00:32:32.755Z,99.52
2022-10-21T00:34:59.820Z,99.21
2022-10-21T00:37:30.031Z,99.02
2022-10-21T00:39:57.042Z,98.84
2022-10-21T00:42:31.245Z,98.31
2022-10-21T00:45:18.916Z,98.03
2022-10-21T00:47:51.862Z,98.30
2022-10-21T00:50:43.541Z,98.29
2022-10-21T00:53:14.304Z,98.28
2022-10-21T00:55:47.441Z,97.71
2022-10-21T00:58:15.835Z,97.73
2022-10-21T01:00:42.724Z,97.48
2022-10-21T01:03:09.667Z,97.68
2022-10-21T01:05:39.508Z,98.26
2022-10-21T01:08:06.391Z,98.23
2022-10-21T01:10:33.267Z,97.92
2022-10-21T01:13:00.028Z,97.67
2022-10-21T01:15:45.277Z,97.58
2022-10-21T01:18:35.395Z,97.01
2022-10-21T01:21:41.913Z,96.47
2022-10-21T01:24:53.022Z,96.61
2022-10-21T01:27:57.136Z,97.48
2022-10-21T01:30:29.833Z,97.62
2022-10-21T01:33:04.640Z,97.12
2022-10-21T01:35:50.077Z,97.56
2022-10-21T01:38:41.546Z,97.67
2022-10-21T01:41:42.418Z,97.85
2022-10-21T01:44:11.840Z,97.84
2022-10-21T01:46:47.401Z,97.79
2022-10-21T01:49:39.368Z,97.27
2022-10-21T01:52:07.891Z,96.90
2022-10-21T01:54:40.483Z,96.63
2022-10-21T01:57:09.068Z,96.29
2022-10-21T01:59:36.345Z,96.55
2022-10-21T02:02:05.822Z,95.96
2022-10-21T02:04:36.425Z,96.16
2022-10-21T02:07:03.448Z,96.12
2022-10-21T02:12:17.675Z,96.71
2022-10-21T02:14:51.480Z,96.94
2022-10-21T02:17:20.847Z,96.92
2022-10-21T02:19:48.174Z,97.17
2022-10-21T02:22:20.672Z,97.29
2022-10-21T02:25:16.393Z,97.62
2022-10-21T02:27:43.696Z,98.31
2022-10-21T02:30:11.144Z,98.66
2022-10-21T02:32:58.169Z,98.81
2022-10-21T02:35:46.512Z,98.84
2022-10-21T02:38:39.221Z,99.19
2022-10-21T02:41:10.959Z,99.38
2022-10-21T02:43:52.770Z,99.70
2022-10-21T02:46:19.623Z,99.63
2022-10-21T02:48:48.133Z,99.64
2022-10-21T02:51:15.713Z,99.67
2022-10-21T02:53:43.021Z,99.52
2022-10-21T02:56:09.821Z,99.65
2022-10-21T02:58:38.325Z,99.89
2022-10-21T03:01:05.382Z,99.99
2022-10-21T03:03:32.347Z,100.00
2022-10-21T03:05:59.089Z,100.00
2022-10-21T03:08:25.949Z,100.00
2022-10-21T03:10:53.516Z,100.00
2022-10-21T03:13:21.407Z,100.00
2022-10-21T03:15:51.425Z,100.00
2022-10-21T03:18:18.762Z,100.00
2022-10-21T03:20:50.100Z,100.00
2022-10-21T03:23:17.850Z,100.00
2022-10-21T03:25:44.858Z,100.00
2022-10-21T03:28:11.978Z,100.00
2022-10-21T03:30:38.810Z,100.00
2022-10-21T03:33:05.645Z,100.00
2022-10-21T03:35:32.420Z,100.00
2022-10-21T03:37:59.281Z,100.00
2022-10-21T03:40:30.178Z,100.00
2022-10-21T03:43:00.307Z,100.00
2022-10-21T03:45:27.231Z,100.00
2022-10-21T03:47:54.071Z,100.00
2022-10-21T03:50:26.125Z,100.00
2022-10-21T03:52:53.455Z,100.00
2022-10-21T03:55:21.203Z,100.00
2022-10-21T03:57:48.501Z,100.00
2022-10-21T04:00:15.694Z,100.00
2022-10-21T04:02:43.345Z,100.00
2022-10-21T04:05:10.790Z,100.00
2022-10-21T04:07:37.781Z,100.00
2022-10-21T04:10:05.439Z,100.00
2022-10-21T04:12:32.264Z,100.00
2022-10-21T04:14:59.059Z,100.00
2022-10-21T04:17:26.065Z,100.00
2022-10-21T04:19:53.028Z,100.00
2022-10-21T04:22:19.792Z,100.00
2022-10-21T04:24:46.536Z,100.00
2022-10-21T04:27:13.349Z,100.00
2022-10-21T04:29:40.111Z,100.00
2022-10-21T04:32:07.001Z,100.00
2022-10-21T04:34:33.719Z,100.00
2022-10-21T04:37:04.084Z,100.00
2022-10-21T04:39:32.072Z,100.00
2022-10-21T04:41:59.004Z,100.00
2022-10-21T04:44:25.832Z,100.00
2022-10-21T04:46:52.638Z,100.00
2022-10-21T04:49:19.690Z,100.00
2022-10-21T04:51:46.581Z,100.00
2022-10-21T04:54:13.769Z,100.00
2022-10-21T04:56:41.647Z,100.00
2022-10-21T04:59:08.443Z,100.00
2022-10-21T05:01:35.285Z,100.00
2022-10-21T05:04:02.043Z,100.00
2022-10-21T05:06:28.794Z,100.00
2022-10-21T05:08:55.770Z,100.00
2022-10-21T05:11:22.730Z,100.00
2022-10-21T05:13:49.470Z,100.00
2022-10-21T05:16:16.354Z,100.00
2022-10-21T05:18:43.164Z,100.00
2022-10-21T05:21:09.912Z,100.00
2022-10-21T05:23:36.726Z,100.00
2022-10-21T05:26:03.557Z,100.00
2022-10-21T05:28:30.408Z,100.00
2022-10-21T05:30:57.160Z,100.00
2022-10-21T05:33:24.043Z,100.00
2022-10-21T05:36:02.030Z,100.00
2022-10-21T05:38:30.044Z,100.00
2022-10-21T05:41:00.587Z,100.00
2022-10-21T05:43:28.337Z,100.00
2022-10-21T05:45:55.104Z,100.00
2022-10-21T05:48:23.923Z,100.00
2022-10-21T05:50:53.836Z,100.00
2022-10-21T05:53:21.556Z,100.00
2022-10-21T05:56:07.004Z,100.00
2022-10-21T05:58:35.284Z,100.00
2022-10-21T06:01:02.538Z,100.00
2022-10-21T06:03:33.004Z,100.00
2022-10-21T06:06:01.769Z,100.00
2022-10-21T06:08:32.431Z,100.00
2022-10-21T06:11:15.741Z,100.00
2022-10-21T06:13:42.586Z,100.00
2022-10-21T06:16:10.185Z,100.00
2022-10-21T06:18:37.144Z,100.00
2022-10-21T06:21:04.344Z,100.00
2022-10-21T06:23:31.171Z,100.00
2022-10-21T06:26:00.154Z,100.00
2022-10-21T06:28:29.948Z,100.00
2022-10-21T06:30:57.244Z,100.00
2022-10-21T06:33:27.009Z,100.00
2022-10-21T06:35:55.257Z,100.00
2022-10-21T06:38:27.477Z,100.00
2022-10-21T06:41:01.871Z,100.00
2022-10-21T06:43:29.081Z,100.00
2022-10-21T06:46:01.270Z,100.00
2022-10-21T06:48:32.570Z,100.00
2022-10-21T06:51:10.115Z,100.00
2022-10-21T06:53:39.270Z,100.00
2022-10-21T06:56:15.055Z,100.00
2022-10-21T06:58:48.165Z,100.00
2022-10-21T07:01:33.795Z,100.00
2022-10-21T07:04:03.521Z,100.00
2022-10-21T07:06:30.764Z,100.00
2022-10-21T07:08:58.867Z,100.00
2022-10-21T07:11:27.270Z,100.00
2022-10-21T07:13:54.657Z,100.00
2022-10-21T07:16:27.509Z,100.00
2022-10-21T07:18:55.390Z,100.00
2022-10-21T07:21:24.873Z,100.00
2022-10-21T07:23:52.774Z,100.00
2022-10-21T07:26:21.450Z,100.00
2022-10-21T07:28:48.355Z,100.00
2022-10-21T07:31:16.139Z,100.00
2022-10-21T07:33:43.317Z,100.00
2022-10-21T07:36:20.357Z,100.00
2022-10-21T07:38:48.908Z,100.00
2022-10-21T07:41:25.475Z,100.00
2022-10-21T07:43:52.985Z,100.00
2022-10-21T07:46:21.473Z,100.00
2022-10-21T07:48:48.900Z,100.00
2022-10-21T07:51:18.637Z,100.00
2022-10-21T07:53:46.672Z,100.00
2022-10-21T07:56:16.415Z,100.00
2022-10-21T07:58:44.417Z,100.00
2022-10-21T08:01:11.656Z,100.00
2022-10-21T08:03:39.038Z,100.00
2022-10-21T08:06:07.219Z,100.00
2022-10-21T08:08:34.900Z,100.00
2022-10-21T08:11:02.484Z,100.00
2022-10-21T08:13:31.719Z,100.00
2022-10-21T08:15:59.014Z,100.00
2022-10-21T08:18:28.823Z,100.00
2022-10-21T08:20:57.736Z,100.00
2022-10-21T08:23:26.584Z,100.00
2022-10-21T08:25:56.822Z,100.00
2022-10-21T08:28:28.382Z,100.00
2022-10-21T08:31:06.750Z,100.00
2022-10-21T08:33:34.093Z,100.00
2022-10-21T08:36:06.236Z,100.00
2022-10-21T08:38:34.824Z,100.00
2022-10-21T08:41:02.725Z,100.00
2022-10-21T08:43:35.148Z,100.00
2022-10-21T08:46:07.698Z,100.00
2022-10-21T08:48:42.938Z,100.00
2022-10-21T08:51:23.060Z,100.00
2022-10-21T08:53:54.010Z,100.00
2022-10-21T08:56:21.066Z,100.00
2022-10-21T08:58:52.098Z,100.00
2022-10-21T09:01:38.485Z,100.00
2022-10-21T09:04:15.400Z,100.00
2022-10-21T09:06:45.020Z,100.00
2022-10-21T09:09:30.774Z,100.00
2022-10-21T09:12:18.619Z,100.00
2022-10-21T09:14:54.554Z,100.00
2022-10-21T09:17:36.344Z,100.00
2022-10-21T09:20:16.279Z,100.00
2022-10-21T09:23:21.332Z,100.00
2022-10-21T09:26:04.103Z,99.67
2022-10-21T09:28:31.757Z,99.41
2022-10-21T09:31:02.590Z,98.79
2022-10-21T09:33:32.483Z,98.33
2022-10-21T09:36:02.050Z,97.93
2022-10-21T09:38:48.379Z,97.76
2022-10-21T09:44:16.635Z,97.52
2022-10-21T09:46:46.301Z,97.07
2022-10-21T09:49:47.843Z,97.11
2022-10-21T09:52:11.823Z,96.95
2022-10-21T09:54:42.200Z,97.06
2022-10-21T09:57:31.850Z,96.82
2022-10-21T10:00:02.724Z,95.92
2022-10-21T10:02:33.732Z,95.96
2022-10-21T10:05:00.470Z,95.97
2022-10-21T10:07:35.480Z,96.26
2022-10-21T10:10:22.913Z,95.62
2022-10-21T10:12:58.104Z,95.25
2022-10-21T10:15:38.883Z,95.21
2022-10-21T10:18:32.887Z,95.09
2022-10-21T10:21:11.288Z,95.27
2022-10-21T10:23:50.584Z,95.36
2022-10-21T10:26:31.826Z,95.59
2022-10-21T10:29:11.415Z,95.59
2022-10-21T10:31:39.141Z,96.09
2022-10-21T10:34:09.121Z,96.35
2022-10-21T10:36:39.745Z,97.15
2022-10-21T10:39:17.030Z,97.09
2022-10-21T10:41:48.324Z,96.96
2022-10-21T10:44:40.279Z,96.38
2022-10-21T10:47:16.846Z,94.51
2022-10-21T10:49:46.635Z,94.29
2022-10-21T10:52:13.372Z,93.91
2022-10-21T10:54:41.988Z,92.49
2022-10-21T10:57:33.949Z,91.70
2022-10-21T11:00:32.870Z,90.88
2022-10-21T11:03:14.590Z,91.06
2022-10-21T11:05:51.292Z,91.01
2022-10-21T11:08:36.503Z,89.91
2022-10-21T11:11:07.264Z,89.28
2022-10-21T11:13:37.880Z,88.89
2022-10-21T11:16:13.962Z,88.61
2022-10-21T11:18:55.596Z,87.27
2022-10-21T11:21:28.121Z,87.77
2022-10-21T11:24:17.512Z,89.62
2022-10-21T11:27:05.893Z,87.53
2022-10-21T11:29:50.596Z,87.42
2022-10-21T11:32:36.111Z,87.78
2022-10-21T11:35:03.375Z,88.30
2022-10-21T11:37:54.476Z,88.61
2022-10-21T11:40:32.276Z,88.68
2022-10-21T11:43:16.672Z,89.14
2022-10-21T11:45:49.736Z,89.25
2022-10-21T11:48:34.865Z,88.96
2022-10-21T11:51:21.810Z,88.17
2022-10-21T11:54:14.002Z,87.84
2022-10-21T11:56:50.583Z,86.82
2022-10-21T11:59:55.255Z,86.40
2022-10-21T12:02:39.696Z,86.84
2022-10-21T12:05:06.679Z,86.74
2022-10-21T12:07:51.933Z,86.77
2022-10-21T12:10:21.936Z,86.23
2022-10-21T12:12:50.671Z,86.06
2022-10-21T12:15:22.041Z,85.89
2022-10-21T12:17:49.964Z,85.31
2022-10-21T12:20:27.080Z,85.14
2022-10-21T12:23:03.872Z,84.50
2022-10-21T12:25:30.548Z,84.16
2022-10-21T12:28:32.087Z,84.48
2022-10-21T12:31:17.080Z,83.46
2022-10-21T12:33:45.826Z,84.04
2022-10-21T12:36:24.591Z,83.88
2022-10-21T12:38:51.289Z,83.43
2022-10-21T12:41:21.147Z,83.53
2022-10-21T12:44:05.645Z,83.13
2022-10-21T12:46:37.568Z,83.23
2022-10-21T12:49:32.636Z,83.84
2022-10-21T12:52:08.635Z,83.47
2022-10-21T12:55:11.628Z,82.63
2022-10-21T12:57:42.660Z,83.18
2022-10-21T13:00:28.325Z,83.22
2022-10-21T13:02:58.574Z,83.14
2022-10-21T13:06:02.219Z,82.34
2022-10-21T13:08:40.259Z,82.59
2022-10-21T13:11:09.773Z,82.65
2022-10-21T13:13:42.593Z,82.49
2022-10-21T13:16:18.710Z,81.57
2022-10-21T13:18:51.499Z,81.47
2022-10-21T13:21:35.569Z,81.56
2022-10-21T13:24:15.326Z,81.06
2022-10-21T13:26:49.549Z,81.17
2022-10-21T13:29:52.365Z,81.98
2022-10-21T13:32:33.743Z,81.55
2022-10-21T13:35:22.614Z,82.66
2022-10-21T13:37:59.725Z,82.75
2022-10-21T13:40:38.982Z,82.21
2022-10-21T13:43:13.932Z,81.94
2022-10-21T13:45:48.305Z,81.28
2022-10-21T13:48:36.857Z,81.07
2022-10-21T13:51:17.574Z,81.51
2022-10-21T13:53:48.351Z,81.43
2022-10-21T13:56:36.505Z,80.89
2022-10-21T13:59:04.901Z,81.08
2022-10-21T14:01:47.501Z,81.32
2022-10-21T14:04:16.820Z,81.50
2022-10-21T14:06:58.406Z,81.02
2022-10-21T14:09:32.288Z,80.85
2022-10-21T14:12:02.841Z,81.37
2022-10-21T14:14:31.976Z,81.31
2022-10-21T14:17:05.832Z,81.61
2022-10-21T14:19:36.861Z,80.58
2022-10-21T14:24:56.913Z,80.58
2022-10-21T14:27:31.308Z,79.60
2022-10-21T14:30:01.035Z,79.45
2022-10-21T14:32:28.262Z,80.00
2022-10-21T14:35:10.403Z,79.55
2022-10-21T14:37:44.591Z,79.15
2022-10-21T14:40:29.834Z,78.77
2022-10-21T14:42:56.801Z,77.68
2022-10-21T14:45:33.099Z,78.54
2022-10-21T14:48:11.327Z,78.61
2022-10-21T14:50:40.204Z,77.45
2022-10-21T14:53:17.139Z,77.35
2022-10-21T14:55:46.032Z,77.25
2022-10-21T14:58:35.591Z,77.46
2022-10-21T15:01:12.675Z,77.67
2022-10-21T15:03:44.044Z,78.31
2022-10-21T15:06:37.163Z,76.43
2022-10-21T15:09:06.996Z,76.12
2022-10-21T15:11:37.668Z,76.47
2022-10-21T15:14:13.746Z,76.13
2022-10-21T15:16:46.291Z,76.27
2022-10-21T15:19:21.943Z,76.07
2022-10-21T15:21:53.082Z,75.79
2022-10-21T15:24:50.419Z,75.89
2022-10-21T15:27:28.241Z,75.78
2022-10-21T15:29:55.256Z,76.11
2022-10-21T15:32:26.788Z,75.85
2022-10-21T15:34:55.177Z,75.58
2022-10-21T15:37:22.018Z,75.01
2022-10-21T15:39:49.073Z,75.12
2022-10-21T15:42:22.818Z,74.73
2022-10-21T15:44:50.511Z,75.75
2022-10-21T15:47:17.401Z,75.44
2022-10-21T15:49:46.169Z,75.85
2022-10-21T15:52:14.039Z,75.31
2022-10-21T15:54:41.255Z,76.12
2022-10-21T15:57:22.529Z,76.47
2022-10-21T15:59:49.290Z,76.77
2022-10-21T16:02:17.855Z,76.72
2022-10-21T16:04:45.314Z,76.24
2022-10-21T16:07:20.245Z,76.52
2022-10-21T16:09:47.862Z,76.95
2022-10-21T16:12:16.960Z,77.10
2022-10-21T16:14:43.703Z,77.26
2022-10-21T16:17:12.389Z,78.29
2022-10-21T16:19:39.125Z,77.80
2022-10-21T16:22:16.275Z,77.66
2022-10-21T16:24:43.033Z,79.13
2022-10-21T16:27:12.910Z,78.46
2022-10-21T16:29:40.353Z,80.24
2022-10-21T16:32:07.661Z,83.20
2022-10-21T16:34:34.396Z,84.89
2022-10-21T16:37:01.537Z,86.20
2022-10-21T16:39:28.425Z,87.67
2022-10-21T16:41:55.178Z,88.57
2022-10-21T16:44:22.357Z,89.11
2022-10-21T16:46:54.540Z,89.60
2022-10-21T16:49:25.336Z,90.06
2022-10-21T16:51:53.206Z,90.96
2022-10-21T16:54:21.440Z,91.20
2022-10-21T16:56:48.216Z,90.89
2022-10-21T16:59:15.206Z,91.19
2022-10-21T17:01:46.545Z,91.61
2022-10-21T17:04:14.697Z,91.78
2022-10-21T17:06:41.618Z,92.00
2022-10-21T17:09:09.340Z,92.71
2022-10-21T17:11:40.890Z,92.37
2022-10-21T17:14:11.827Z,92.06
2022-10-21T17:16:40.250Z,93.31
2022-10-21T17:19:08.267Z,95.13
2022-10-21T17:21:35.705Z,94.75
2022-10-21T17:24:04.012Z,94.16
2022-10-21T17:26:31.321Z,93.92
2022-10-21T17:28:58.514Z,93.86
2022-10-21T17:31:30.782Z,93.17
2022-10-21T17:34:00.271Z,94.37
2022-10-21T17:36:26.991Z,95.37
2022-10-21T17:38:53.976Z,95.90
2022-10-21T17:41:20.760Z,95.88
2022-10-21T17:43:55.634Z,96.19
2022-10-21T17:46:25.426Z,96.35
2022-10-21T17:48:53.819Z,96.58
2022-10-21T17:51:22.925Z,96.71
2022-10-21T17:53:54.930Z,96.20
2022-10-21T17:56:22.911Z,96.25
2022-10-21T17:58:51.368Z,95.96
2022-10-21T18:01:18.544Z,96.57
2022-10-21T18:03:45.536Z,95.99
2022-10-21T18:06:13.471Z,95.60
2022-10-21T18:08:40.476Z,95.47
2022-10-21T18:11:10.301Z,95.26
2022-10-21T18:13:37.921Z,95.41
2022-10-21T18:16:08.169Z,95.11
2022-10-21T18:18:35.712Z,95.41
2022-10-21T18:21:11.046Z,95.28
2022-10-21T18:23:40.621Z,95.02
2022-10-21T18:26:13.969Z,94.90
2022-10-21T18:28:41.023Z,94.03
2022-10-21T18:31:07.871Z,93.99
2022-10-21T18:33:34.865Z,94.20
2022-10-21T18:36:13.355Z,93.23
2022-10-21T18:38:40.816Z,93.24
2022-10-21T18:41:19.648Z,92.56
2022-10-21T18:43:49.871Z,93.09
2022-10-21T18:46:16.891Z,92.27
2022-10-21T18:48:43.986Z,91.97
2022-10-21T18:51:12.392Z,91.63
2022-10-21T18:53:39.736Z,91.74
2022-10-21T18:56:08.911Z,90.85
2022-10-21T18:58:36.659Z,90.96
2022-10-21T19:01:04.769Z,91.28
2022-10-21T19:03:31.898Z,90.34
2022-10-21T19:06:15.194Z,89.31
2022-10-21T19:08:42.136Z,89.50
2022-10-21T19:11:09.005Z,89.67
2022-10-21T19:13:36.038Z,89.82
2022-10-21T19:16:02.767Z,90.45
2022-10-21T19:18:29.658Z,90.10
2022-10-21T19:20:56.960Z,89.77
2022-10-21T19:23:23.929Z,89.64
2022-10-21T19:25:50.663Z,89.48
2022-10-21T19:28:17.433Z,89.06
2022-10-21T19:30:45.834Z,88.52
2022-10-21T19:33:12.565Z,88.43
2022-10-21T19:35:39.375Z,88.32
2022-10-21T19:38:11.565Z,87.88
2022-10-21T19:40:42.779Z,87.64
2022-10-21T19:43:09.847Z,88.42
2022-10-21T19:45:37.287Z,88.39
2022-10-21T19:48:04.323Z,88.37
2022-10-21T19:50:31.124Z,88.49
2022-10-21T19:52:57.861Z,87.76
2022-10-21T19:55:24.671Z,88.48
2022-10-21T19:57:51.408Z,88.59
2022-10-21T20:00:18.213Z,87.61
2022-10-21T20:02:44.983Z,87.83
2022-10-21T20:05:11.844Z,87.67
2022-10-21T20:07:39.472Z,88.17
2022-10-21T20:10:06.780Z,88.10
2022-10-21T20:12:33.595Z,88.39
2022-10-21T20:15:00.518Z,88.17
2022-10-21T20:17:27.468Z,88.11
2022-10-21T20:19:54.358Z,88.53
2022-10-21T20:22:23.439Z,88.95
2022-10-21T20:24:53.059Z,88.97
2022-10-21T20:27:19.786Z,88.18
2022-10-21T20:29:46.487Z,88.15
2022-10-21T20:32:13.544Z,87.31
2022-10-21T20:34:40.445Z,88.43
2022-10-21T20:37:07.200Z,88.24
2022-10-21T20:39:33.964Z,87.65
2022-10-21T20:42:00.731Z,87.37
2022-10-21T20:44:27.473Z,87.13
2022-10-21T20:46:54.374Z,87.06
2022-10-21T20:49:21.134Z,87.16
2022-10-21T20:51:48.031Z,87.44
2022-10-21T20:54:17.626Z,86.90
2022-10-21T20:56:45.050Z,86.65
2022-10-21T20:59:17.041Z,87.05
2022-10-21T21:01:46.255Z,86.71
2022-10-21T21:04:15.261Z,86.75
2022-10-21T21:06:47.237Z,86.69
2022-10-21T21:09:37.618Z,86.18
2022-10-21T21:12:03.995Z,86.02
2022-10-21T21:14:31.459Z,85.69
2022-10-21T21:16:58.282Z,86.81
2022-10-21T21:19:25.904Z,86.16
2022-10-21T21:21:53.420Z,85.44
2022-10-21T21:24:20.331Z,85.31
2022-10-21T21:26:47.191Z,85.16
2022-10-21T21:29:14.562Z,84.91
2022-10-21T21:31:42.257Z,86.14
2022-10-21T21:34:10.076Z,86.16
2022-10-21T21:36:37.466Z,85.91
2022-10-21T21:39:05.412Z,86.04
2022-10-21T21:41:32.286Z,86.00
2022-10-21T21:43:59.172Z,86.53
2022-10-21T21:46:26.523Z,87.01
2022-10-21T21:48:59.556Z,87.39
2022-10-21T21:51:30.511Z,87.83
2022-10-21T21:53:58.456Z,87.69
2022-10-21T21:56:26.513Z,87.59
2022-10-21T21:58:58.219Z,87.36
2022-10-21T22:01:31.961Z,87.71
2022-10-21T22:04:00.444Z,88.81
2022-10-21T22:06:33.390Z,88.05
2022-10-21T22:09:01.328Z,87.92
2022-10-21T22:11:32.077Z,88.12
2022-10-21T22:13:59.590Z,88.44
2022-10-21T22:16:30.522Z,88.70
2022-10-21T22:18:59.891Z,89.75
2022-10-21T22:21:30.805Z,90.97
2022-10-21T22:23:57.694Z,91.94
2022-10-21T22:26:27.064Z,93.17
2022-10-21T22:28:54.788Z,93.80
2022-10-21T22:31:27.349Z,94.60
2022-10-21T22:33:57.390Z,95.40
2022-10-21T22:36:24.167Z,96.30
2022-10-21T22:38:50.873Z,96.82
2022-10-21T22:41:17.802Z,97.33
2022-10-21T22:43:44.659Z,97.83
2022-10-21T22:48:58.205Z,99.02
2022-10-21T22:51:25.019Z,99.74
2022-10-21T22:53:55.341Z,100.00
2022-10-21T22:56:25.570Z,100.00
2022-10-21T22:58:52.345Z,100.00
2022-10-21T23:01:19.730Z,100.00
2022-10-21T23:03:46.482Z,100.00
2022-10-21T23:06:13.200Z,100.00
2022-10-21T23:08:40.180Z,100.00
2022-10-21T23:11:07.177Z,100.00
2022-10-21T23:13:34.096Z,100.00
2022-10-21T23:16:00.980Z,100.00
2022-10-21T23:18:31.861Z,100.00
2022-10-21T23:20:58.614Z,100.00
2022-10-21T23:23:25.485Z,100.00
2022-10-21T23:25:52.333Z,100.00
2022-10-21T23:28:25.498Z,100.00
2022-10-21T23:30:52.236Z,100.00
2022-10-21T23:33:19.011Z,100.00
2022-10-21T23:35:45.968Z,100.00
2022-10-21T23:38:12.985Z,100.00
2022-10-21T23:40:39.841Z,100.00
2022-10-21T23:43:06.566Z,100.00
2022-10-21T23:45:33.456Z,100.00
2022-10-21T23:48:00.340Z,100.00
2022-10-21T23:50:27.188Z,100.00
2022-10-21T23:52:54.109Z,100.00
2022-10-21T23:55:20.932Z,100.00
2022-10-21T23:57:47.712Z,100.00
